createdAt,value
2023-04-18T00:08:07.283Z,18
2023-04-18T00:36:19.793Z,19
2023-04-18T01:04:34.419Z,22
2023-04-18T01:32:53.196Z,23
2023-04-18T02:01:16.360Z,24
2023-04-18T02:29:30.693Z,29
2023-04-18T02:57:50.505Z,34
2023-04-18T03:26:12.165Z,34
2023-04-18T03:54:29.485Z,36
2023-04-18T04:22:51.796Z,37
2023-04-18T04:51:07.643Z,36
2023-04-18T05:19:32.183Z,35
2023-04-18T05:47:49.616Z,36
2023-04-18T06:16:11.495Z,36
2023-04-18T06:44:30.608Z,34
2023-04-18T07:12:51.859Z,37
2023-04-18T07:41:13.530Z,37
2023-04-18T08:09:31.319Z,36
2023-04-18T08:37:49.798Z,36
2023-04-18T09:06:06.712Z,73
2023-04-18T09:34:29.162Z,31
2023-04-18T10:02:50.467Z,31
2023-04-18T10:31:21.758Z,29
2023-04-18T10:59:45.572Z,30
2023-04-18T11:27:53.940Z,34
2023-04-18T11:56:13.315Z,30
2023-04-18T12:24:44.511Z,31
2023-04-18T12:52:59.750Z,31
2023-04-18T13:21:19.803Z,30
2023-04-18T13:49:42.346Z,25
2023-04-18T14:18:01.750Z,18
2023-04-18T14:46:17.153Z,18
2023-04-18T15:14:38.844Z,19
2023-04-18T15:42:43.106Z,11
2023-04-18T16:10:58.947Z,10
2023-04-18T16:39:19.236Z,11
2023-04-18T17:07:33.904Z,8
2023-04-18T17:35:52.354Z,9
2023-04-18T18:04:09.461Z,10
2023-04-18T18:32:30.513Z,11
2023-04-18T19:00:48.200Z,13
2023-04-18T19:29:05.325Z,14
2023-04-18T19:57:19.640Z,14
2023-04-18T20:25:36.331Z,17
2023-04-18T20:53:53.545Z,22
2023-04-18T21:22:08.231Z,22
2023-04-18T21:50:29.732Z,23
2023-04-18T22:18:55.244Z,23
2023-04-18T22:47:11.412Z,23
2023-04-18T23:15:28.855Z,24
2023-04-18T23:43:45.178Z,23
